createdAt,value
2019-02-27T00:00:54.998Z,5.5
2019-02-27T00:01:55.669Z,5.6
2019-02-27T00:02:56.711Z,5.5
2019-02-27T00:03:59.783Z,5.5
2019-02-27T00:04:59.016Z,5.5
2019-02-27T00:05:59.684Z,5.5
2019-02-27T00:07:00.356Z,5.5
2019-02-27T00:08:01.027Z,5.5
2019-02-27T00:09:01.696Z,5.4
2019-02-27T00:10:05.888Z,5.5
2019-02-27T00:11:04.027Z,5.5
2019-02-27T00:12:04.698Z,5.4
2019-02-27T00:13:05.369Z,5.4
2019-02-27T00:14:06.038Z,5.5
2019-02-27T00:15:06.709Z,5.3
2019-02-27T00:16:10.882Z,5.5
2019-02-27T00:17:09.090Z,5.4
2019-02-27T00:18:09.759Z,5.3
2019-02-27T00:19:10.431Z,5.4
2019-02-27T00:20:11.101Z,5.3
2019-02-27T00:21:11.771Z,5.3
2019-02-27T00:22:14.881Z,5.3
2019-02-27T00:23:14.104Z,5.3
2019-02-27T00:24:14.774Z,5.3
2019-02-27T00:25:15.444Z,5.2
2019-02-27T00:26:16.112Z,5.4
2019-02-27T00:27:16.783Z,5.3
2019-02-27T00:28:17.477Z,5.2
2019-02-27T00:29:18.124Z,5.4
2019-02-27T00:30:18.794Z,5.2
2019-02-27T00:31:19.463Z,5.2
2019-02-27T00:32:20.134Z,5.3
2019-02-27T00:33:25.067Z,5.3
2019-02-27T00:34:22.464Z,5.2
2019-02-27T00:35:23.134Z,5.3
2019-02-27T00:36:23.803Z,5.3
2019-02-27T00:37:24.476Z,5.2
2019-02-27T00:38:25.775Z,5.2
2019-02-27T00:39:26.442Z,5.2
2019-02-27T00:40:27.115Z,5.2
2019-02-27T00:41:27.835Z,5.2
2019-02-27T00:42:33.438Z,5.2
2019-02-27T00:43:30.233Z,5.2
2019-02-27T00:44:33.986Z,5.2
2019-02-27T00:45:32.547Z,5.3
2019-02-27T00:46:33.215Z,5.3
2019-02-27T00:47:33.890Z,5.2
2019-02-27T00:48:34.557Z,5.3
2019-02-27T00:49:35.232Z,5.2
2019-02-27T00:50:38.943Z,5.2
2019-02-27T00:51:37.556Z,5.2
2019-02-27T00:52:38.226Z,5.2
2019-02-27T00:53:38.894Z,5.2
2019-02-27T00:54:39.564Z,5.2
2019-02-27T00:55:40.236Z,5.2
2019-02-27T00:56:44.861Z,5.3
2019-02-27T00:57:42.565Z,5.2
2019-02-27T00:58:43.236Z,5.2
2019-02-27T00:59:43.904Z,5.3
2019-02-27T01:00:44.576Z,5.2
2019-02-27T01:01:47.523Z,5.3
2019-02-27T01:02:46.907Z,5.3
2019-02-27T01:03:47.578Z,5.3
2019-02-27T01:04:48.248Z,5.2
2019-02-27T01:05:48.916Z,5.2
2019-02-27T01:06:49.588Z,5.3
2019-02-27T01:07:53.846Z,5.3
2019-02-27T01:08:51.918Z,5.3
2019-02-27T01:09:52.586Z,5.3
2019-02-27T01:10:53.258Z,5.3
2019-02-27T01:11:53.926Z,5.2
2019-02-27T01:12:57.679Z,5.2
2019-02-27T01:13:56.255Z,5.2
2019-02-27T01:14:56.925Z,5.2
2019-02-27T01:15:57.594Z,5.2
2019-02-27T01:16:58.264Z,5.2
2019-02-27T01:17:58.933Z,5.2
2019-02-27T01:19:02.238Z,5.2
2019-02-27T01:20:01.265Z,5.2
2019-02-27T01:21:01.934Z,5.2
2019-02-27T01:22:02.603Z,5.2
2019-02-27T01:23:03.275Z,5.2
2019-02-27T01:24:03.947Z,5.1
2019-02-27T01:25:04.614Z,5.2
2019-02-27T01:26:05.284Z,5.1
2019-02-27T01:27:05.955Z,5.2
2019-02-27T01:28:10.883Z,5.2
2019-02-27T01:29:07.336Z,5.2
2019-02-27T01:30:08.007Z,5.2
2019-02-27T01:31:08.677Z,5.1
2019-02-27T01:32:09.347Z,5.1
2019-02-27T01:33:10.063Z,5.1
2019-02-27T01:34:11.327Z,5.1
2019-02-27T01:35:17.848Z,5.1
2019-02-27T01:36:14.053Z,5.1
2019-02-27T01:37:14.723Z,5.1
2019-02-27T01:38:15.392Z,5.1
2019-02-27T01:39:16.064Z,5.1
2019-02-27T01:40:17.921Z,5.1
2019-02-27T01:41:18.403Z,5.0
2019-02-27T01:42:19.065Z,5.1
2019-02-27T01:43:19.735Z,5.1
2019-02-27T01:44:20.404Z,5.1
2019-02-27T01:45:21.772Z,5.1
2019-02-27T01:46:22.408Z,5.1
2019-02-27T01:47:23.079Z,5.1
2019-02-27T01:48:23.749Z,5.1
2019-02-27T01:49:24.417Z,5.0
2019-02-27T01:50:25.089Z,5.1
2019-02-27T01:51:28.091Z,5.0
2019-02-27T01:52:27.418Z,5.1
2019-02-27T01:53:28.093Z,5.1
2019-02-27T01:54:28.762Z,5.0
2019-02-27T01:55:29.429Z,5.0
2019-02-27T01:56:30.096Z,5.0
2019-02-27T01:57:30.768Z,5.0
2019-02-27T01:58:31.439Z,5.0
2019-02-27T01:59:32.158Z,5.1
2019-02-27T02:00:32.827Z,5.1
2019-02-27T02:01:33.548Z,5.1
2019-02-27T02:02:34.951Z,5.0
2019-02-27T02:03:35.879Z,5.0
2019-02-27T02:04:36.596Z,5.1
2019-02-27T02:05:37.267Z,5.1
2019-02-27T02:06:37.937Z,5.1
2019-02-27T02:07:40.283Z,5.1
2019-02-27T02:08:40.268Z,5.1
2019-02-27T02:09:40.938Z,5.1
2019-02-27T02:10:41.606Z,5.1
2019-02-27T02:11:42.277Z,5.0
2019-02-27T02:12:42.946Z,5.0
2019-02-27T02:13:48.048Z,5.1
2019-02-27T02:14:44.328Z,5.0
2019-02-27T02:15:45.000Z,5.0
2019-02-27T02:16:45.666Z,5.1
2019-02-27T02:17:46.336Z,5.1
2019-02-27T02:18:48.246Z,5.0
2019-02-27T02:19:48.845Z,5.0
2019-02-27T02:20:49.379Z,4.9
2019-02-27T02:21:50.050Z,5.0
2019-02-27T02:22:50.718Z,5.0
2019-02-27T02:23:51.388Z,5.0
2019-02-27T02:24:54.229Z,5.0
2019-02-27T02:25:53.717Z,5.0
2019-02-27T02:26:54.388Z,5.0
2019-02-27T02:27:55.056Z,4.9
2019-02-27T02:28:55.726Z,4.9
2019-02-27T02:29:56.397Z,4.9
2019-02-27T02:30:57.067Z,4.9
2019-02-27T02:31:57.737Z,4.9
2019-02-27T02:32:58.410Z,4.9
2019-02-27T02:34:05.200Z,4.8
2019-02-27T02:35:00.739Z,4.8
2019-02-27T02:36:01.412Z,4.8
2019-02-27T02:37:02.846Z,4.7
2019-02-27T02:38:02.791Z,4.8
2019-02-27T02:39:03.459Z,4.8
2019-02-27T02:40:04.130Z,4.7
2019-02-27T02:41:07.930Z,4.7
2019-02-27T02:42:05.513Z,4.6
2019-02-27T02:43:06.198Z,4.6
2019-02-27T02:44:06.857Z,4.6
2019-02-27T02:45:07.531Z,4.5
2019-02-27T02:46:09.559Z,4.5
2019-02-27T02:47:09.850Z,4.5
2019-02-27T02:48:10.521Z,4.4
2019-02-27T02:49:11.189Z,4.5
2019-02-27T02:50:17.469Z,4.4
2019-02-27T02:51:13.522Z,4.4
2019-02-27T02:52:14.189Z,4.4
2019-02-27T02:53:14.859Z,4.4
2019-02-27T02:54:15.527Z,4.4
2019-02-27T02:55:16.205Z,4.4
2019-02-27T02:56:16.868Z,4.4
2019-02-27T02:57:17.540Z,4.4
2019-02-27T02:58:18.208Z,4.4
2019-02-27T02:59:24.533Z,4.4
2019-02-27T03:00:20.538Z,4.4
2019-02-27T03:01:21.210Z,4.4
2019-02-27T03:02:23.787Z,4.4
2019-02-27T03:03:23.542Z,4.3
2019-02-27T03:04:24.210Z,4.3
2019-02-27T03:05:24.883Z,4.3
2019-02-27T03:06:25.547Z,4.3
2019-02-27T03:07:26.271Z,4.3
2019-02-27T03:08:26.937Z,4.3
2019-02-27T03:09:30.606Z,4.3
2019-02-27T03:10:29.263Z,4.3
2019-02-27T03:11:29.934Z,4.3
2019-02-27T03:12:31.255Z,4.3
2019-02-27T03:13:31.963Z,4.3
2019-02-27T03:14:32.676Z,4.2
2019-02-27T03:15:33.348Z,4.2
2019-02-27T03:16:34.065Z,4.2
2019-02-27T03:17:34.782Z,4.3
2019-02-27T03:18:35.452Z,4.3
2019-02-27T03:19:41.257Z,4.3
2019-02-27T03:20:36.833Z,4.3
2019-02-27T03:21:37.502Z,4.2
2019-02-27T03:22:41.523Z,4.2
2019-02-27T03:23:39.833Z,4.3
2019-02-27T03:24:40.502Z,4.3
2019-02-27T03:25:41.920Z,4.3
2019-02-27T03:26:42.605Z,4.3
2019-02-27T03:27:43.271Z,4.2
2019-02-27T03:28:43.937Z,4.2
2019-02-27T03:29:44.610Z,4.2
2019-02-27T03:30:45.277Z,4.2
2019-02-27T03:31:45.945Z,4.2
2019-02-27T03:32:46.616Z,4.3
2019-02-27T03:33:47.284Z,4.2
2019-02-27T03:34:50.982Z,4.1
2019-02-27T03:35:48.663Z,4.2
2019-02-27T03:36:49.334Z,4.0
2019-02-27T03:37:50.000Z,4.1
2019-02-27T03:38:50.670Z,4.1
2019-02-27T03:39:51.338Z,4.1
2019-02-27T03:40:52.009Z,4.1
2019-02-27T03:41:58.515Z,4.1
2019-02-27T03:42:53.389Z,4.1
2019-02-27T03:43:54.057Z,4.2
2019-02-27T03:44:56.364Z,4.1
2019-02-27T03:45:55.447Z,4.1
2019-02-27T03:46:56.159Z,4.2
2019-02-27T03:47:56.827Z,4.0
2019-02-27T03:49:02.969Z,4.0
2019-02-27T03:49:59.156Z,4.0
2019-02-27T03:50:59.825Z,4.0
2019-02-27T03:52:01.361Z,4.1
2019-02-27T03:53:02.095Z,4.0
2019-02-27T03:54:02.749Z,4.0
2019-02-27T03:55:03.477Z,4.0
2019-02-27T03:56:08.561Z,4.0
2019-02-27T03:57:04.905Z,3.9
2019-02-27T03:58:05.576Z,4.0
2019-02-27T03:59:07.481Z,3.9
2019-02-27T04:00:07.905Z,3.9
2019-02-27T04:01:08.581Z,4.0
2019-02-27T04:02:09.247Z,4.0
2019-02-27T04:03:09.915Z,4.0
2019-02-27T04:04:10.582Z,4.0
2019-02-27T04:05:11.251Z,3.9
2019-02-27T04:06:11.920Z,4.0
2019-02-27T04:07:12.639Z,3.9
2019-02-27T04:08:13.309Z,3.9
2019-02-27T04:09:18.528Z,3.9
2019-02-27T04:10:15.640Z,3.9
2019-02-27T04:11:16.309Z,3.9
2019-02-27T04:12:17.429Z,3.8
2019-02-27T04:13:18.116Z,3.8
2019-02-27T04:14:18.853Z,3.9
2019-02-27T04:15:19.477Z,3.7
2019-02-27T04:16:20.141Z,3.7
2019-02-27T04:17:20.811Z,3.7
2019-02-27T04:18:27.369Z,3.6
2019-02-27T04:19:23.143Z,3.7
2019-02-27T04:20:23.806Z,3.7
2019-02-27T04:21:25.363Z,3.6
2019-02-27T04:22:26.135Z,3.6
2019-02-27T04:23:26.808Z,3.6
2019-02-27T04:24:27.480Z,3.5
2019-02-27T04:25:31.055Z,3.5
2019-02-27T04:26:28.926Z,3.4
2019-02-27T04:27:29.826Z,3.5
2019-02-27T04:28:30.682Z,3.5
2019-02-27T04:29:31.369Z,3.5
2019-02-27T04:30:32.037Z,3.5
2019-02-27T04:31:32.706Z,3.5
2019-02-27T04:32:33.378Z,3.6
2019-02-27T04:33:34.045Z,3.5
2019-02-27T04:34:34.714Z,3.5
2019-02-27T04:35:39.306Z,3.5
2019-02-27T04:36:37.043Z,3.6
2019-02-27T04:37:37.711Z,3.6
2019-02-27T04:38:38.380Z,3.6
2019-02-27T04:39:39.055Z,3.7
2019-02-27T04:40:41.695Z,3.7
2019-02-27T04:41:40.431Z,3.6
2019-02-27T04:42:41.097Z,3.6
2019-02-27T04:43:41.765Z,3.7
2019-02-27T04:44:42.434Z,3.6
2019-02-27T04:45:43.907Z,3.6
2019-02-27T04:46:44.813Z,3.6
2019-02-27T04:47:45.480Z,3.6
2019-02-27T04:48:46.150Z,3.6
2019-02-27T04:49:46.818Z,3.6
2019-02-27T04:50:47.486Z,3.6
2019-02-27T04:51:50.576Z,3.6
2019-02-27T04:52:49.815Z,3.5
2019-02-27T04:53:50.484Z,3.5
2019-02-27T04:54:51.154Z,3.5
2019-02-27T04:55:51.822Z,3.5
2019-02-27T04:56:55.074Z,3.5
2019-02-27T04:57:54.201Z,3.5
2019-02-27T04:58:54.868Z,3.4
2019-02-27T04:59:55.536Z,3.4
2019-02-27T05:00:58.949Z,3.4
2019-02-27T05:01:56.917Z,3.3
2019-02-27T05:02:57.586Z,3.3
2019-02-27T05:04:01.220Z,3.3
2019-02-27T05:04:59.915Z,3.3
2019-02-27T05:06:00.584Z,3.2
2019-02-27T05:07:01.251Z,3.3
2019-02-27T05:08:01.922Z,3.2
2019-02-27T05:09:02.592Z,3.2
2019-02-27T05:10:07.107Z,3.2
2019-02-27T05:11:03.975Z,3.2
2019-02-27T05:12:04.641Z,3.1
2019-02-27T05:13:05.314Z,3.1
2019-02-27T05:14:05.978Z,3.1
2019-02-27T05:15:06.648Z,3.2
2019-02-27T05:16:07.315Z,3.1
2019-02-27T05:17:07.985Z,3.2
2019-02-27T05:18:08.653Z,3.1
2019-02-27T05:19:09.323Z,3.1
2019-02-27T05:20:12.425Z,3.1
2019-02-27T05:21:11.654Z,3.1
2019-02-27T05:22:12.323Z,3.1
2019-02-27T05:23:12.994Z,3.0
2019-02-27T05:24:13.712Z,3.0
2019-02-27T05:25:15.042Z,3.0
2019-02-27T05:26:15.089Z,3.1
2019-02-27T05:27:15.758Z,3.1
2019-02-27T05:28:16.428Z,3.1
2019-02-27T05:29:17.097Z,3.0
2019-02-27T05:30:17.764Z,3.0
2019-02-27T05:31:19.165Z,3.0
2019-02-27T05:32:19.184Z,3.0
2019-02-27T05:33:19.863Z,3.0
2019-02-27T05:34:20.531Z,3.1
2019-02-27T05:35:23.700Z,3.0
2019-02-27T05:36:21.910Z,3.0
2019-02-27T05:37:22.578Z,3.0
2019-02-27T05:38:23.249Z,2.9
2019-02-27T05:39:23.917Z,2.9
2019-02-27T05:40:25.974Z,2.9
2019-02-27T05:41:26.245Z,3.0
2019-02-27T05:42:26.911Z,2.9
2019-02-27T05:43:27.578Z,2.9
2019-02-27T05:44:28.247Z,2.9
2019-02-27T05:45:31.199Z,2.9
2019-02-27T05:46:30.578Z,2.9
2019-02-27T05:47:31.253Z,2.8
2019-02-27T05:48:31.918Z,2.9
2019-02-27T05:49:32.586Z,2.9
2019-02-27T05:50:34.223Z,2.9
2019-02-27T05:51:34.915Z,2.9
2019-02-27T05:52:35.583Z,2.9
2019-02-27T05:53:36.254Z,2.9
2019-02-27T05:54:36.923Z,3.0
2019-02-27T05:55:39.225Z,3.0
2019-02-27T05:56:39.265Z,2.9
2019-02-27T05:57:39.974Z,3.0
2019-02-27T05:58:40.642Z,3.0
2019-02-27T05:59:41.311Z,3.0
2019-02-27T06:00:41.980Z,3.1
2019-02-27T06:01:42.652Z,3.1
2019-02-27T06:02:44.854Z,3.1
2019-02-27T06:03:45.034Z,3.0
2019-02-27T06:04:45.705Z,3.0
2019-02-27T06:05:49.543Z,3.1
2019-02-27T06:06:48.047Z,3.0
2019-02-27T06:07:48.711Z,3.0
2019-02-27T06:08:49.381Z,3.0
2019-02-27T06:09:50.103Z,3.0
2019-02-27T06:10:55.216Z,3.0
2019-02-27T06:11:52.428Z,3.0
2019-02-27T06:12:53.098Z,3.1
2019-02-27T06:13:53.770Z,3.0
2019-02-27T06:14:55.027Z,3.0
2019-02-27T06:15:56.105Z,3.0
2019-02-27T06:16:56.778Z,3.1
2019-02-27T06:17:57.448Z,3.1
2019-02-27T06:18:58.120Z,3.1
2019-02-27T06:19:58.791Z,3.1
2019-02-27T06:20:59.462Z,3.0
2019-02-27T06:22:00.133Z,3.0
2019-02-27T06:23:04.096Z,3.0
2019-02-27T06:24:02.470Z,3.0
2019-02-27T06:25:03.148Z,3.0
2019-02-27T06:26:03.813Z,3.0
2019-02-27T06:27:06.259Z,3.1
2019-02-27T06:28:06.146Z,3.0
2019-02-27T06:29:06.817Z,3.0
2019-02-27T06:30:07.491Z,3.1
2019-02-27T06:31:08.161Z,3.1
2019-02-27T06:32:12.139Z,3.0
2019-02-27T06:33:11.801Z,3.0
2019-02-27T06:34:11.212Z,3.1
2019-02-27T06:35:11.885Z,3.0
2019-02-27T06:36:12.556Z,3.0
2019-02-27T06:37:15.440Z,3.1
2019-02-27T06:38:14.889Z,3.0
2019-02-27T06:39:15.561Z,3.1
2019-02-27T06:40:18.084Z,3.1
2019-02-27T06:41:17.897Z,3.1
2019-02-27T06:42:18.640Z,3.0
2019-02-27T06:43:19.297Z,3.1
2019-02-27T06:44:20.011Z,3.0
2019-02-27T06:45:20.683Z,3.1
2019-02-27T06:46:21.354Z,3.0
2019-02-27T06:47:22.028Z,3.0
2019-02-27T06:48:22.702Z,3.1
2019-02-27T06:49:23.373Z,3.1
2019-02-27T06:50:25.452Z,3.1
2019-02-27T06:51:25.711Z,3.1
2019-02-27T06:52:26.384Z,3.1
2019-02-27T06:53:27.058Z,3.2
2019-02-27T06:54:27.730Z,3.1
2019-02-27T06:55:28.840Z,3.2
2019-02-27T06:56:29.497Z,3.1
2019-02-27T06:57:30.220Z,3.2
2019-02-27T06:58:30.893Z,3.1
2019-02-27T06:59:31.566Z,3.1
2019-02-27T07:00:35.955Z,3.1
2019-02-27T07:01:32.953Z,3.1
2019-02-27T07:02:33.628Z,3.1
2019-02-27T07:03:34.301Z,3.2
2019-02-27T07:04:36.441Z,3.2
2019-02-27T07:05:36.639Z,3.2
2019-02-27T07:06:37.313Z,3.1
2019-02-27T07:07:38.006Z,3.1
2019-02-27T07:08:38.775Z,3.2
2019-02-27T07:09:39.425Z,3.2
2019-02-27T07:10:40.096Z,3.1
2019-02-27T07:11:44.996Z,3.2
2019-02-27T07:12:42.432Z,3.2
2019-02-27T07:13:43.105Z,3.2
2019-02-27T07:14:43.794Z,3.1
2019-02-27T07:15:47.774Z,3.3
2019-02-27T07:16:46.116Z,3.2
2019-02-27T07:17:46.791Z,3.3
2019-02-27T07:18:47.514Z,3.3
2019-02-27T07:19:49.711Z,3.3
2019-02-27T07:20:49.852Z,3.4
2019-02-27T07:21:50.525Z,3.4
2019-02-27T07:22:51.199Z,3.5
2019-02-27T07:23:51.870Z,3.5
2019-02-27T07:24:52.543Z,3.5
2019-02-27T07:25:53.225Z,3.5
2019-02-27T07:26:53.891Z,3.5
2019-02-27T07:27:54.563Z,3.5
2019-02-27T07:28:55.273Z,3.5
2019-02-27T07:29:55.959Z,3.6
2019-02-27T07:30:56.633Z,3.5
2019-02-27T07:31:57.318Z,3.6
2019-02-27T07:32:58.030Z,3.6
2019-02-27T07:33:58.704Z,3.7
2019-02-27T07:34:59.376Z,3.7
2019-02-27T07:36:03.156Z,3.8
2019-02-27T07:37:01.714Z,3.8
2019-02-27T07:38:02.387Z,3.8
2019-02-27T07:39:03.059Z,3.9
2019-02-27T07:40:08.168Z,3.9
2019-02-27T07:41:05.400Z,3.9
2019-02-27T07:42:06.075Z,4.0
2019-02-27T07:43:06.747Z,4.0
2019-02-27T07:44:07.422Z,4.0
2019-02-27T07:45:10.604Z,4.0
2019-02-27T07:46:09.758Z,4.2
2019-02-27T07:47:10.430Z,4.2
2019-02-27T07:48:11.104Z,4.3
2019-02-27T07:49:11.777Z,4.3
2019-02-27T07:50:12.452Z,4.2
2019-02-27T07:51:13.121Z,4.3
2019-02-27T07:52:13.796Z,4.3
2019-02-27T07:53:17.487Z,4.4
2019-02-27T07:54:16.137Z,4.5
2019-02-27T07:55:21.897Z,4.4
2019-02-27T07:56:18.474Z,4.5
2019-02-27T07:57:19.148Z,4.6
2019-02-27T07:58:19.818Z,4.6
2019-02-27T07:59:20.503Z,4.6
2019-02-27T08:00:21.169Z,4.6
2019-02-27T08:01:23.626Z,4.7
2019-02-27T08:02:23.512Z,4.8
2019-02-27T08:03:24.232Z,4.8
2019-02-27T08:04:24.905Z,4.9
2019-02-27T08:05:27.937Z,4.9
2019-02-27T08:06:27.242Z,4.9
2019-02-27T08:07:27.957Z,4.9
2019-02-27T08:08:28.629Z,5.0
2019-02-27T08:09:30.226Z,5.0
2019-02-27T08:10:30.013Z,5.1
2019-02-27T08:11:30.688Z,5.1
2019-02-27T08:12:31.359Z,5.2
2019-02-27T08:13:32.030Z,5.2
2019-02-27T08:14:37.055Z,5.1
2019-02-27T08:15:34.366Z,5.2
2019-02-27T08:16:36.963Z,5.3
2019-02-27T08:17:36.705Z,5.3
2019-02-27T08:18:38.167Z,5.3
2019-02-27T08:19:38.906Z,5.4
2019-02-27T08:20:39.578Z,5.4
2019-02-27T08:21:40.250Z,5.3
2019-02-27T08:22:40.923Z,5.5
2019-02-27T08:23:41.594Z,5.5
2019-02-27T08:24:42.266Z,5.5
2019-02-27T08:25:42.938Z,5.6
2019-02-27T08:26:43.609Z,5.5
2019-02-27T08:27:44.283Z,5.7
2019-02-27T08:28:44.962Z,5.7
2019-02-27T08:29:45.674Z,5.7
2019-02-27T08:30:46.347Z,5.7
2019-02-27T08:31:47.019Z,5.8
2019-02-27T08:32:47.693Z,5.9
2019-02-27T08:33:48.366Z,5.9
2019-02-27T08:34:49.037Z,5.9
2019-02-27T08:35:49.709Z,6.1
2019-02-27T08:36:50.381Z,6.2
2019-02-27T08:37:51.056Z,6.1
2019-02-27T08:38:51.726Z,6.2
2019-02-27T08:39:52.399Z,6.3
2019-02-27T08:40:57.565Z,6.4
2019-02-27T08:41:54.734Z,6.5
2019-02-27T08:42:55.408Z,6.6
2019-02-27T08:43:56.081Z,6.6
2019-02-27T08:44:56.753Z,6.7
2019-02-27T08:46:02.066Z,6.8
2019-02-27T08:46:59.092Z,6.8
2019-02-27T08:47:59.766Z,6.9
2019-02-27T08:49:00.490Z,6.9
2019-02-27T08:50:01.161Z,7.1
2019-02-27T08:51:05.718Z,7.1
2019-02-27T08:52:03.497Z,7.2
2019-02-27T08:53:04.170Z,7.2
2019-02-27T08:54:04.841Z,7.3
2019-02-27T08:55:06.197Z,7.4
2019-02-27T08:56:06.893Z,7.6
2019-02-27T08:57:07.567Z,7.6
2019-02-27T08:58:08.288Z,7.8
2019-02-27T08:59:08.965Z,7.8
2019-02-27T09:00:14.168Z,7.9
2019-02-27T09:01:10.406Z,8.0
2019-02-27T09:02:11.075Z,8.1
2019-02-27T09:03:20.043Z,8.3
2019-02-27T09:04:12.476Z,8.2
2019-02-27T09:05:13.140Z,8.3
2019-02-27T09:06:15.902Z,8.4
2019-02-27T09:07:15.477Z,8.5
2019-02-27T09:08:16.152Z,8.5
2019-02-27T09:09:17.935Z,8.7
2019-02-27T09:10:18.493Z,8.8
2019-02-27T09:11:19.167Z,8.8
2019-02-27T09:12:19.842Z,8.8
2019-02-27T09:13:20.517Z,9.0
2019-02-27T09:14:21.194Z,9.0
2019-02-27T09:15:21.919Z,9.1
2019-02-27T09:16:25.757Z,9.2
2019-02-27T09:17:26.893Z,9.2
2019-02-27T09:18:25.971Z,9.4
2019-02-27T09:19:26.648Z,9.4
2019-02-27T09:20:27.370Z,9.5
2019-02-27T09:21:28.615Z,9.6
2019-02-27T09:22:29.314Z,9.7
2019-02-27T09:23:30.031Z,9.7
2019-02-27T09:24:30.705Z,9.8
2019-02-27T09:25:31.381Z,9.9
2019-02-27T09:26:36.069Z,10.0
2019-02-27T09:27:35.324Z,10.1
2019-02-27T09:28:35.398Z,10.1
2019-02-27T09:29:36.074Z,10.2
2019-02-27T09:30:36.753Z,10.3
2019-02-27T09:31:37.656Z,10.4
2019-02-27T09:32:39.100Z,10.6
2019-02-27T09:33:39.777Z,10.6
2019-02-27T09:34:40.454Z,10.6
2019-02-27T09:35:41.130Z,10.6
2019-02-27T09:36:43.277Z,10.8
2019-02-27T09:37:43.481Z,10.8
2019-02-27T09:38:45.217Z,10.8
2019-02-27T09:39:44.922Z,10.9
2019-02-27T09:40:45.600Z,11.0
2019-02-27T09:41:47.068Z,11.1
2019-02-27T09:42:50.171Z,11.1
2019-02-27T09:43:49.453Z,11.2
2019-02-27T09:44:50.132Z,11.2
2019-02-27T09:45:50.855Z,11.3
2019-02-27T09:46:52.391Z,11.3
2019-02-27T09:47:53.183Z,11.5
2019-02-27T09:48:55.772Z,11.5
2019-02-27T09:49:55.527Z,11.6
2019-02-27T09:50:56.995Z,11.6
2019-02-27T09:51:57.718Z,11.7
2019-02-27T09:53:01.011Z,11.7
2019-02-27T09:53:59.115Z,11.8
2019-02-27T09:54:59.792Z,12.0
2019-02-27T09:56:00.470Z,12.1
2019-02-27T09:57:02.352Z,12.2
2019-02-27T09:58:02.819Z,12.3
2019-02-27T09:59:03.500Z,12.7
2019-02-27T10:00:04.174Z,12.7
2019-02-27T10:01:04.900Z,12.8
2019-02-27T10:02:06.303Z,12.9
2019-02-27T10:03:07.249Z,13.1
2019-02-27T10:04:09.641Z,13.0
2019-02-27T10:05:09.596Z,13.1
2019-02-27T10:06:10.273Z,13.1
2019-02-27T10:07:10.951Z,13.0
2019-02-27T10:08:11.631Z,13.0
2019-02-27T10:09:12.308Z,13.1
2019-02-27T10:10:12.987Z,13.0
2019-02-27T10:11:13.667Z,13.0
2019-02-27T10:12:14.346Z,13.0
2019-02-27T10:13:15.024Z,12.9
2019-02-27T10:14:16.413Z,13.0
2019-02-27T10:15:17.372Z,12.9
2019-02-27T10:16:18.049Z,13.1
2019-02-27T10:17:18.728Z,12.9
2019-02-27T10:18:22.010Z,13.0
2019-02-27T10:19:20.175Z,13.0
2019-02-27T10:20:20.944Z,13.0
2019-02-27T10:21:21.571Z,13.0
2019-02-27T10:22:22.249Z,13.1
2019-02-27T10:23:22.930Z,13.1
2019-02-27T10:24:23.609Z,13.2
2019-02-27T10:25:24.287Z,13.1
2019-02-27T10:26:24.968Z,13.2
2019-02-27T10:27:28.846Z,13.1
2019-02-27T10:28:27.317Z,13.2
2019-02-27T10:29:27.995Z,13.2
2019-02-27T10:30:28.676Z,13.1
2019-02-27T10:31:29.360Z,13.1
2019-02-27T10:32:31.636Z,13.1
2019-02-27T10:33:31.705Z,13.2
2019-02-27T10:34:32.383Z,13.2
2019-02-27T10:35:34.695Z,13.2
2019-02-27T10:36:38.275Z,13.2
2019-02-27T10:37:36.430Z,13.3
2019-02-27T10:38:40.280Z,13.3
2019-02-27T10:39:38.792Z,13.2
2019-02-27T10:40:39.475Z,13.3
2019-02-27T10:41:40.199Z,13.3
2019-02-27T10:42:40.920Z,13.4
2019-02-27T10:43:41.551Z,13.4
2019-02-27T10:44:42.276Z,13.3
2019-02-27T10:45:42.958Z,13.3
2019-02-27T10:46:43.681Z,13.4
2019-02-27T10:47:44.374Z,13.4
2019-02-27T10:48:46.903Z,13.5
2019-02-27T10:49:46.767Z,13.5
2019-02-27T10:50:47.443Z,13.5
2019-02-27T10:51:48.168Z,13.5
2019-02-27T10:52:50.094Z,13.5
2019-02-27T10:53:50.520Z,13.6
2019-02-27T10:54:51.254Z,13.7
2019-02-27T10:55:51.971Z,13.6
2019-02-27T10:56:52.653Z,13.7
2019-02-27T10:57:53.332Z,13.7
2019-02-27T10:58:54.014Z,13.7
2019-02-27T10:59:54.737Z,13.7
2019-02-27T11:00:58.009Z,13.8
2019-02-27T11:01:57.086Z,13.8
2019-02-27T11:02:57.768Z,13.9
2019-02-27T11:04:00.518Z,13.9
2019-02-27T11:04:59.215Z,13.9
2019-02-27T11:05:59.896Z,13.8
2019-02-27T11:07:00.577Z,13.9
2019-02-27T11:08:01.256Z,14.0
2019-02-27T11:09:04.427Z,14.0
2019-02-27T11:10:02.656Z,14.0
2019-02-27T11:11:03.386Z,14.1
2019-02-27T11:12:04.064Z,14.2
2019-02-27T11:13:06.624Z,14.2
2019-02-27T11:14:05.563Z,14.2
2019-02-27T11:15:08.113Z,14.3
2019-02-27T11:16:06.963Z,14.4
2019-02-27T11:17:07.642Z,14.3
2019-02-27T11:18:08.323Z,14.3
2019-02-27T11:19:09.004Z,14.3
2019-02-27T11:20:09.682Z,14.3
2019-02-27T11:21:10.363Z,14.3
2019-02-27T11:22:11.092Z,14.4
2019-02-27T11:23:11.774Z,14.4
2019-02-27T11:24:14.480Z,14.5
2019-02-27T11:25:14.177Z,14.4
2019-02-27T11:26:14.854Z,14.5
2019-02-27T11:27:16.836Z,14.5
2019-02-27T11:28:17.206Z,14.5
2019-02-27T11:29:17.887Z,14.5
2019-02-27T11:30:18.567Z,14.5
2019-02-27T11:31:19.248Z,14.6
2019-02-27T11:32:22.893Z,14.6
2019-02-27T11:33:25.662Z,14.6
2019-02-27T11:34:22.321Z,14.7
2019-02-27T11:35:25.102Z,14.6
2019-02-27T11:36:23.731Z,14.7
2019-02-27T11:37:24.454Z,14.7
2019-02-27T11:38:25.502Z,14.8
2019-02-27T11:39:26.175Z,14.7
2019-02-27T11:40:26.856Z,14.7
2019-02-27T11:41:27.532Z,14.7
2019-02-27T11:42:29.016Z,14.7
2019-02-27T11:43:29.887Z,14.8
2019-02-27T11:44:30.583Z,14.8
2019-02-27T11:45:31.237Z,14.9
2019-02-27T11:46:31.918Z,14.9
2019-02-27T11:47:32.599Z,15.0
2019-02-27T11:48:33.279Z,15.0
2019-02-27T11:49:36.320Z,15.0
2019-02-27T11:50:35.632Z,15.0
2019-02-27T11:51:36.314Z,15.0
2019-02-27T11:52:37.037Z,15.0
2019-02-27T11:53:37.716Z,15.0
2019-02-27T11:54:42.904Z,15.0
2019-02-27T11:55:40.071Z,15.0
2019-02-27T11:56:40.752Z,15.1
2019-02-27T11:57:43.243Z,15.2
2019-02-27T11:58:43.104Z,15.1
2019-02-27T11:59:46.729Z,15.2
2019-02-27T12:00:45.457Z,15.2
2019-02-27T12:01:46.137Z,15.2
2019-02-27T12:02:46.816Z,15.3
2019-02-27T12:03:47.496Z,15.4
2019-02-27T12:04:48.175Z,15.4
2019-02-27T12:05:48.856Z,15.3
2019-02-27T12:06:49.536Z,15.4
2019-02-27T12:07:51.116Z,15.5
2019-02-27T12:08:50.944Z,15.4
2019-02-27T12:09:51.624Z,15.6
2019-02-27T12:10:52.304Z,15.6
2019-02-27T12:11:52.991Z,15.7
2019-02-27T12:12:53.669Z,15.7
2019-02-27T12:13:54.891Z,15.8
2019-02-27T12:14:55.535Z,15.9
2019-02-27T12:15:56.262Z,15.8
2019-02-27T12:16:56.942Z,15.9
2019-02-27T12:18:00.511Z,16.0
2019-02-27T12:18:58.344Z,16.0
2019-02-27T12:19:59.029Z,15.9
2019-02-27T12:20:59.704Z,16.0
2019-02-27T12:22:00.437Z,16.1
2019-02-27T12:23:01.106Z,16.0
2019-02-27T12:24:01.789Z,16.0
2019-02-27T12:25:02.467Z,16.0
2019-02-27T12:26:03.225Z,16.0
2019-02-27T12:27:03.875Z,16.1
2019-02-27T12:28:04.558Z,16.1
2019-02-27T12:29:05.236Z,16.1
2019-02-27T12:30:05.918Z,16.1
2019-02-27T12:31:08.102Z,16.1
2019-02-27T12:32:08.273Z,16.2
2019-02-27T12:33:08.954Z,16.1
2019-02-27T12:34:09.730Z,16.2
2019-02-27T12:35:10.818Z,16.2
2019-02-27T12:36:12.035Z,16.2
2019-02-27T12:37:19.240Z,16.3
2019-02-27T12:38:14.389Z,16.3
2019-02-27T12:39:15.545Z,16.4
2019-02-27T12:40:15.795Z,16.3
2019-02-27T12:41:16.479Z,16.4
2019-02-27T12:42:17.159Z,16.4
2019-02-27T12:43:18.573Z,16.5
2019-02-27T12:44:19.251Z,16.4
2019-02-27T12:45:19.951Z,16.5
2019-02-27T12:46:20.615Z,16.5
2019-02-27T12:47:21.295Z,16.5
2019-02-27T12:48:21.977Z,16.5
2019-02-27T12:49:22.657Z,16.6
2019-02-27T12:50:25.881Z,16.6
2019-02-27T12:51:25.063Z,16.7
2019-02-27T12:52:25.745Z,16.7
2019-02-27T12:53:26.427Z,16.8
2019-02-27T12:54:27.501Z,17.0
2019-02-27T12:55:28.209Z,17.2
2019-02-27T12:56:28.889Z,17.4
2019-02-27T12:57:29.573Z,17.5
2019-02-27T12:58:30.255Z,17.5
2019-02-27T12:59:33.044Z,17.6
2019-02-27T13:00:31.666Z,17.5
2019-02-27T13:01:32.389Z,17.5
2019-02-27T13:02:35.873Z,17.6
2019-02-27T13:03:34.744Z,17.6
2019-02-27T13:04:35.527Z,17.6
2019-02-27T13:05:36.208Z,17.5
2019-02-27T13:06:37.414Z,17.5
2019-02-27T13:07:38.071Z,17.4
2019-02-27T13:08:38.750Z,17.5
2019-02-27T13:09:39.433Z,17.4
2019-02-27T13:10:40.114Z,17.5
2019-02-27T13:11:41.648Z,17.5
2019-02-27T13:12:42.470Z,17.5
2019-02-27T13:13:43.150Z,17.6
2019-02-27T13:14:43.830Z,17.5
2019-02-27T13:15:44.512Z,17.4
2019-02-27T13:16:46.377Z,17.5
2019-02-27T13:17:46.869Z,17.5
2019-02-27T13:18:47.552Z,17.5
2019-02-27T13:19:48.235Z,17.5
2019-02-27T13:20:48.916Z,17.6
2019-02-27T13:21:49.597Z,17.5
2019-02-27T13:22:50.278Z,17.6
2019-02-27T13:23:51.008Z,17.6
2019-02-27T13:24:51.691Z,17.5
2019-02-27T13:25:52.375Z,17.5
2019-02-27T13:26:53.053Z,17.5
2019-02-27T13:27:53.735Z,17.5
2019-02-27T13:28:54.418Z,17.5
2019-02-27T13:29:56.583Z,17.5
2019-02-27T13:30:56.774Z,17.6
2019-02-27T13:31:57.503Z,17.6
2019-02-27T13:33:01.056Z,17.6
2019-02-27T13:33:58.913Z,17.7
2019-02-27T13:34:59.595Z,17.7
2019-02-27T13:36:00.438Z,17.7
2019-02-27T13:37:01.137Z,17.8
2019-02-27T13:38:01.818Z,17.7
2019-02-27T13:39:02.504Z,17.6
2019-02-27T13:40:03.235Z,17.7
2019-02-27T13:41:03.916Z,17.7
2019-02-27T13:42:04.605Z,17.6
2019-02-27T13:43:05.281Z,17.8
2019-02-27T13:44:07.840Z,17.7
2019-02-27T13:45:12.758Z,17.7
2019-02-27T13:46:09.309Z,17.7
2019-02-27T13:47:09.989Z,17.7
2019-02-27T13:48:10.670Z,17.6
2019-02-27T13:49:13.865Z,17.7